Time;durP1;ratioP1;P1;durP2;ratioP2;P2;SDS_P1;SDS_P2;PMS_P1;PMS_P2;Temp;Humidity;BMP_temperature;BMP_pressure;BME280_temperature;BME280_humidity;BME280_pressure;Samples;Min_cycle;Max_cycle;Signal;HPM_P1;HPM_P2
2022/03/27 00:01:40;;;;;;;6.13;3.60;;;15.00;73.60;;;;;;5049920;28;20098;-75
2022/03/27 00:04:05;;;;;;;5.97;3.30;;;15.00;73.60;;;;;;5031888;28;20052;-73
2022/03/27 00:06:31;;;;;;;7.18;3.92;;;14.90;73.50;;;;;;5032051;28;20409;-71
2022/03/27 00:08:56;;;;;;;7.07;3.22;;;15.00;73.60;;;;;;5032109;28;20025;-74
2022/03/27 00:11:24;;;;;;;5.97;3.50;;;14.90;73.60;;;;;;5032356;28;20064;-72
2022/03/27 00:13:51;;;;;;;6.30;3.22;;;14.90;73.60;;;;;;5032201;28;20028;-72
2022/03/27 00:16:17;;;;;;;7.05;3.60;;;15.00;73.70;;;;;;5031547;28;20497;-73
2022/03/27 00:18:42;;;;;;;6.93;3.80;;;14.90;73.60;;;;;;5031828;28;20078;-71
2022/03/27 00:21:10;;;;;;;7.65;3.92;;;14.90;73.60;;;;;;5050288;28;20455;-73
2022/03/27 00:23:35;;;;;;;6.93;3.55;;;15.00;74.20;;;;;;5049475;28;20033;-73
2022/03/27 00:26:02;;;;;;;6.30;3.50;;;14.90;73.70;;;;;;5049716;28;20104;-74
2022/03/27 00:28:32;;;;;;;6.50;3.60;;;14.90;73.70;;;;;;5031630;28;20036;-72
2022/03/27 00:30:59;;;;;;;7.03;3.50;;;14.90;73.60;;;;;;5049414;28;20073;-76
2022/03/27 00:33:26;;;;;;;6.13;3.80;;;14.90;73.70;;;;;;5031835;28;20032;-74
2022/03/27 00:35:52;;;;;;;6.72;3.63;;;14.90;73.70;;;;;;5031664;28;20032;-73
2022/03/27 00:38:17;;;;;;;5.82;3.40;;;14.90;73.70;;;;;;5049368;28;20037;-74
2022/03/27 00:40:43;;;;;;;5.82;3.40;;;14.90;73.70;;;;;;5031722;28;20032;-71
2022/03/27 00:43:09;;;;;;;5.88;3.40;;;15.00;73.70;;;;;;5032121;28;20028;-73
2022/03/27 00:45:34;;;;;;;6.57;3.50;;;14.90;73.70;;;;;;5047583;28;20032;-71
2022/03/27 00:48:00;;;;;;;6.05;3.33;;;14.90;73.70;;;;;;5049404;28;20021;-73
2022/03/27 00:50:25;;;;;;;6.30;3.58;;;14.90;73.70;;;;;;5030715;28;20035;-72
2022/03/27 00:52:51;;;;;;;5.80;3.50;;;14.90;73.70;;;;;;5031496;28;20033;-72
2022/03/27 00:55:16;;;;;;;6.85;3.60;;;14.90;73.70;;;;;;5031467;28;20032;-78
2022/03/27 00:57:42;;;;;;;6.75;3.80;;;14.90;73.90;;;;;;5030804;28;20052;-72
2022/03/27 01:00:10;;;;;;;6.10;3.42;;;14.90;73.70;;;;;;5031396;28;20036;-73
2022/03/27 01:02:36;;;;;;;5.78;3.22;;;14.90;73.70;;;;;;5048939;28;20489;-73
2022/03/27 01:05:09;;;;;;;6.30;3.50;;;14.90;73.70;;;;;;5049511;28;20027;-71
2022/03/27 01:07:34;;;;;;;6.10;3.78;;;14.90;73.70;;;;;;5030982;28;20039;-72
2022/03/27 01:10:00;;;;;;;6.80;3.72;;;14.90;73.70;;;;;;5049140;28;20029;-73
2022/03/27 01:12:35;;;;;;;6.20;3.40;;;14.90;73.70;;;;;;5030866;28;20136;-73
2022/03/27 01:15:02;;;;;;;6.30;3.45;;;14.90;74.30;;;;;;5048247;28;20025;-73
2022/03/27 01:17:28;;;;;;;6.70;3.55;;;14.90;73.70;;;;;;5030252;28;20477;-72
2022/03/27 01:19:56;;;;;;;6.00;3.40;;;14.90;73.80;;;;;;5030731;28;20029;-73
2022/03/27 01:22:22;;;;;;;5.85;3.60;;;14.90;73.70;;;;;;5030762;28;20467;-73
2022/03/27 01:24:51;;;;;;;6.20;3.53;;;14.90;73.70;;;;;;5048995;28;20036;-74
2022/03/27 01:27:16;;;;;;;6.38;3.72;;;14.90;73.80;;;;;;5030272;28;20032;-72
2022/03/27 01:29:42;;;;;;;6.65;3.65;;;14.90;73.80;;;;;;5030697;28;20025;-74
2022/03/27 01:32:14;;;;;;;5.85;3.45;;;14.90;73.80;;;;;;5049069;28;20021;-72
2022/03/27 01:34:40;;;;;;;5.68;3.17;;;14.90;73.80;;;;;;5030872;28;20024;-73
2022/03/27 01:37:08;;;;;;;6.18;3.67;;;14.90;73.90;;;;;;5047915;28;20448;-71
2022/03/27 01:39:34;;;;;;;5.45;3.22;;;14.90;73.90;;;;;;5030677;28;20024;-78
2022/03/27 01:41:59;;;;;;;5.53;3.35;;;14.90;73.80;;;;;;5030602;28;20028;-73
2022/03/27 01:44:25;;;;;;;6.50;3.58;;;14.90;73.90;;;;;;5030637;28;20363;-74
2022/03/27 01:46:52;;;;;;;6.68;3.88;;;14.90;73.90;;;;;;5029718;28;20025;-73
2022/03/27 01:49:19;;;;;;;5.85;3.47;;;14.90;73.90;;;;;;5047299;28;20028;-75
2022/03/27 01:51:44;;;;;;;6.38;3.80;;;14.90;73.90;;;;;;5048497;28;20021;-73
2022/03/27 01:54:10;;;;;;;6.15;3.67;;;14.90;73.90;;;;;;5030321;28;20029;-75
2022/03/27 01:56:39;;;;;;;6.45;3.60;;;14.90;73.90;;;;;;5047773;28;20036;-73
2022/03/27 01:59:05;;;;;;;6.00;3.60;;;14.90;73.90;;;;;;5050373;28;20021;-71
2022/03/27 02:01:32;;;;;;;7.28;3.92;;;14.90;74.00;;;;;;5045456;28;20037;-73
2022/03/27 02:03:57;;;;;;;6.30;3.90;;;14.90;74.00;;;;;;5030177;28;20029;-72
2022/03/27 02:06:23;;;;;;;6.43;3.70;;;14.90;74.00;;;;;;5048022;28;20025;-73
2022/03/27 02:08:50;;;;;;;5.75;3.58;;;14.90;74.00;;;;;;5030234;28;20099;-72
2022/03/27 02:11:16;;;;;;;6.50;3.58;;;14.90;74.00;;;;;;5030296;28;20112;-74
2022/03/27 02:13:42;;;;;;;6.28;3.60;;;14.90;74.00;;;;;;5029925;28;20116;-72
2022/03/27 02:16:08;;;;;;;5.78;3.50;;;14.90;74.00;;;;;;5030198;28;20033;-72
2022/03/27 02:18:33;;;;;;;6.10;3.35;;;14.90;74.00;;;;;;5029637;28;20039;-73
2022/03/27 02:21:03;;;;;;;6.97;4.13;;;14.90;74.10;;;;;;5030203;28;20040;-75
2022/03/27 02:23:29;;;;;;;5.95;3.60;;;14.90;74.00;;;;;;5029852;28;20494;-73
2022/03/27 02:25:55;;;;;;;6.65;3.85;;;14.90;74.10;;;;;;5049619;28;20048;-72
2022/03/27 02:28:21;;;;;;;6.10;3.33;;;14.90;74.00;;;;;;5033832;28;20036;-72
2022/03/27 02:30:47;;;;;;;5.78;3.45;;;14.90;74.10;;;;;;5033851;28;20029;-73
2022/03/27 02:33:13;;;;;;;6.43;3.70;;;14.90;74.10;;;;;;5052153;28;20063;-72
2022/03/27 02:35:39;;;;;;;6.50;4.05;;;14.90;74.10;;;;;;5034097;28;20064;-76
2022/03/27 02:38:05;;;;;;;5.38;3.28;;;14.90;74.20;;;;;;5051661;28;20108;-73
2022/03/27 02:40:35;;;;;;;6.43;3.67;;;14.90;74.10;;;;;;5033741;28;20028;-77
2022/03/27 02:43:01;;;;;;;6.30;3.63;;;14.90;74.20;;;;;;5049433;28;20033;-72
2022/03/27 02:45:28;;;;;;;6.55;3.90;;;14.90;74.10;;;;;;5050323;28;20066;-73
2022/03/27 02:47:54;;;;;;;5.95;3.55;;;14.80;74.10;;;;;;5051370;28;20035;-74
2022/03/27 02:50:20;;;;;;;6.13;3.53;;;14.90;74.20;;;;;;5050882;28;20054;-72
2022/03/27 02:52:45;;;;;;;6.25;3.20;;;14.90;74.20;;;;;;5033740;28;20115;-72
2022/03/27 02:55:11;;;;;;;6.70;3.78;;;14.90;74.20;;;;;;5033648;28;20032;-73
2022/03/27 02:57:37;;;;;;;6.18;3.63;;;14.80;74.20;;;;;;5051308;28;20025;-73
2022/03/27 03:00:06;;;;;;;6.75;3.63;;;14.90;74.30;;;;;;5033394;28;20032;-73
2022/03/27 03:02:32;;;;;;;6.60;3.75;;;14.90;74.30;;;;;;5033242;28;20021;-72
2022/03/27 03:04:58;;;;;;;6.82;4.00;;;14.90;74.20;;;;;;5051506;28;20025;-72
2022/03/27 03:07:24;;;;;;;6.00;3.50;;;14.80;74.20;;;;;;5033278;28;20029;-72
2022/03/27 03:09:50;;;;;;;6.13;3.53;;;14.90;74.30;;;;;;5032509;28;20047;-75
2022/03/27 03:12:15;;;;;;;7.43;3.88;;;14.80;74.20;;;;;;5033319;28;20020;-72
2022/03/27 03:14:41;;;;;;;6.63;4.07;;;14.90;74.30;;;;;;5051325;28;20032;-73
2022/03/27 03:17:08;;;;;;;6.05;3.58;;;14.80;74.20;;;;;;5050685;28;20021;-72
2022/03/27 03:19:34;;;;;;;5.90;3.60;;;14.90;74.20;;;;;;5033352;28;20036;-75
2022/03/27 03:21:59;;;;;;;6.13;3.50;;;14.80;74.20;;;;;;5033106;28;20037;-72
2022/03/27 03:24:26;;;;;;;6.22;3.72;;;14.80;74.20;;;;;;5051260;28;20079;-73
2022/03/27 03:26:53;;;;;;;6.25;3.60;;;14.80;74.30;;;;;;5050785;28;20017;-71
2022/03/27 03:29:19;;;;;;;5.72;3.50;;;14.80;74.20;;;;;;5033059;28;20033;-73
2022/03/27 03:31:45;;;;;;;6.82;4.00;;;14.80;74.20;;;;;;5032965;28;20060;-73
2022/03/27 03:34:11;;;;;;;6.22;3.83;;;14.80;74.30;;;;;;5033100;28;20136;-73
2022/03/27 03:36:36;;;;;;;6.03;3.60;;;14.80;74.30;;;;;;5032083;28;20144;-75
2022/03/27 03:39:02;;;;;;;5.85;3.75;;;14.90;74.30;;;;;;5050318;28;20108;-74
2022/03/27 03:41:28;;;;;;;6.20;3.80;;;14.90;74.40;;;;;;5050732;28;20102;-74
2022/03/27 03:43:53;;;;;;;5.80;3.65;;;14.90;74.30;;;;;;5032925;28;20017;-73
2022/03/27 03:46:19;;;;;;;6.72;4.10;;;14.80;74.30;;;;;;5050610;28;20025;-72
2022/03/27 03:48:45;;;;;;;6.30;3.42;;;14.90;74.40;;;;;;5031977;28;20029;-71
2022/03/27 03:51:10;;;;;;;6.43;3.85;;;14.80;74.40;;;;;;5032595;28;20029;-73
2022/03/27 03:53:36;;;;;;;7.45;3.90;;;14.80;74.40;;;;;;5050672;28;20028;-73
2022/03/27 03:56:01;;;;;;;6.78;3.80;;;14.90;74.50;;;;;;5050536;28;20083;-74
2022/03/27 03:58:27;;;;;;;6.13;3.60;;;14.80;74.30;;;;;;5050070;28;20676;-73
2022/03/27 04:00:52;;;;;;;6.30;3.88;;;14.80;74.30;;;;;;5050360;28;20037;-73
2022/03/27 04:03:18;;;;;;;6.43;3.83;;;14.90;74.40;;;;;;5050328;28;20021;-73
2022/03/27 04:05:43;;;;;;;5.97;3.80;;;14.80;74.30;;;;;;5050358;28;20060;-73
2022/03/27 04:08:09;;;;;;;5.75;3.70;;;14.80;74.40;;;;;;5031936;28;20047;-72
2022/03/27 04:10:34;;;;;;;6.07;3.67;;;14.80;74.50;;;;;;5032495;28;20021;-71
2022/03/27 04:13:00;;;;;;;6.20;3.70;;;14.90;74.50;;;;;;5032317;28;20079;-74
2022/03/27 04:15:25;;;;;;;6.35;4.00;;;14.80;74.40;;;;;;5032369;28;20027;-73
2022/03/27 04:17:51;;;;;;;6.30;4.10;;;14.90;74.40;;;;;;5049728;28;20037;-73
2022/03/27 04:20:18;;;;;;;6.95;4.13;;;14.90;74.50;;;;;;5032449;28;20025;-72
2022/03/27 04:22:45;;;;;;;6.03;3.88;;;14.80;74.30;;;;;;5032033;28;20032;-71
2022/03/27 04:25:11;;;;;;;6.07;3.70;;;14.80;74.30;;;;;;5049972;28;20021;-72
2022/03/27 04:27:37;;;;;;;6.32;3.67;;;14.80;74.40;;;;;;5031640;28;20424;-73
2022/03/27 04:30:07;;;;;;;6.05;3.88;;;14.90;74.50;;;;;;5050037;28;20036;-73
2022/03/27 04:32:32;;;;;;;6.00;3.72;;;14.80;74.30;;;;;;5032008;28;20036;-73
2022/03/27 04:34:58;;;;;;;5.60;3.90;;;14.80;74.40;;;;;;5031936;28;20028;-76
2022/03/27 04:37:23;;;;;;;6.32;3.97;;;14.80;74.40;;;;;;5031501;28;20082;-77
2022/03/27 04:39:49;;;;;;;6.15;3.85;;;14.80;74.40;;;;;;5049754;28;20394;-73
2022/03/27 04:42:15;;;;;;;5.35;3.40;;;14.90;74.40;;;;;;5031044;28;20481;-73
2022/03/27 04:44:40;;;;;;;6.30;3.50;;;14.80;74.40;;;;;;5049401;28;20369;-73
2022/03/27 04:47:06;;;;;;;6.30;3.90;;;14.80;74.40;;;;;;5031315;28;20104;-72
2022/03/27 04:49:32;;;;;;;6.50;4.20;;;14.80;74.40;;;;;;5031037;28;20539;-73
2022/03/27 04:51:58;;;;;;;7.38;4.43;;;14.80;74.40;;;;;;5048193;28;20108;-72
2022/03/27 04:54:24;;;;;;;6.10;3.85;;;14.80;74.30;;;;;;5049336;28;20048;-72
2022/03/27 04:56:49;;;;;;;6.05;3.85;;;14.80;74.40;;;;;;5031053;28;20036;-72
2022/03/27 04:59:15;;;;;;;6.10;4.00;;;14.80;74.40;;;;;;5031547;28;20025;-73
2022/03/27 05:01:41;;;;;;;6.90;4.20;;;14.80;74.40;;;;;;5049115;28;20048;-73
2022/03/27 05:04:07;;;;;;;6.50;4.20;;;14.80;74.40;;;;;;5031452;28;20393;-74
2022/03/27 05:06:33;;;;;;;6.18;3.88;;;14.80;74.40;;;;;;5048692;28;20021;-73
2022/03/27 05:08:58;;;;;;;6.25;3.95;;;14.80;74.40;;;;;;5047994;28;20032;-73
2022/03/27 05:11:27;;;;;;;6.22;3.60;;;14.80;74.40;;;;;;5048919;28;20474;-72
2022/03/27 05:13:54;;;;;;;6.35;3.95;;;14.80;74.40;;;;;;5031265;28;20165;-74
2022/03/27 05:16:19;;;;;;;6.10;4.07;;;14.80;74.40;;;;;;5030894;28;20599;-77
2022/03/27 05:18:45;;;;;;;6.43;3.80;;;14.80;74.40;;;;;;5048706;28;20064;-73
2022/03/27 05:21:10;;;;;;;6.60;4.22;;;14.80;74.40;;;;;;5031167;28;20025;-75
2022/03/27 05:23:37;;;;;;;6.47;4.07;;;14.80;74.40;;;;;;5031024;28;20100;-74
2022/03/27 05:26:03;;;;;;;6.47;4.05;;;14.80;74.40;;;;;;5031114;28;20035;-73
2022/03/27 05:28:28;;;;;;;7.47;4.63;;;14.80;74.30;;;;;;5030601;28;20385;-74
2022/03/27 05:30:56;;;;;;;7.40;4.70;;;14.70;74.30;;;;;;5048465;28;20036;-72
2022/03/27 05:33:22;;;;;;;6.57;4.22;;;14.70;74.30;;;;;;5031073;28;20139;-74
2022/03/27 05:35:48;;;;;;;6.68;4.13;;;14.80;74.40;;;;;;5048052;28;20534;-72
2022/03/27 05:38:13;;;;;;;7.13;4.40;;;14.80;74.40;;;;;;5048317;28;20135;-73
2022/03/27 05:40:39;;;;;;;6.68;4.30;;;14.70;74.30;;;;;;5030482;28;20017;-73
2022/03/27 05:43:05;;;;;;;7.05;4.53;;;14.80;74.40;;;;;;5030776;28;20505;-74
2022/03/27 05:45:30;;;;;;;7.38;4.80;;;14.80;74.30;;;;;;5030324;28;20501;-71
2022/03/27 05:47:56;;;;;;;6.90;4.50;;;14.70;74.30;;;;;;5030530;28;20031;-72
2022/03/27 05:50:22;;;;;;;6.70;4.30;;;14.80;74.30;;;;;;5047728;28;20039;-72
2022/03/27 05:52:49;;;;;;;6.72;4.45;;;14.80;74.30;;;;;;5043589;28;20032;-72
2022/03/27 05:55:15;;;;;;;7.60;4.72;;;14.80;74.40;;;;;;5043496;28;20561;-72
2022/03/27 05:57:42;;;;;;;6.72;4.50;;;14.70;74.40;;;;;;5050507;28;20043;-73
2022/03/27 06:00:09;;;;;;;7.18;4.65;;;14.80;74.50;;;;;;5040532;28;20430;-75
2022/03/27 06:02:35;;;;;;;6.80;4.53;;;14.80;74.40;;;;;;5068387;28;20388;-72
2022/03/27 06:05:01;;;;;;;7.47;4.82;;;14.80;74.40;;;;;;5054806;28;20416;-72
2022/03/27 06:07:26;;;;;;;6.80;4.60;;;14.80;74.40;;;;;;5067603;28;20082;-72
2022/03/27 06:09:52;;;;;;;6.55;4.13;;;14.80;74.40;;;;;;5066826;28;20089;-75
2022/03/27 06:12:17;;;;;;;7.30;4.90;;;14.80;74.50;;;;;;5066854;28;20139;-75
2022/03/27 06:14:43;;;;;;;7.28;4.72;;;14.80;74.40;;;;;;5050158;28;20036;-72
2022/03/27 06:17:09;;;;;;;7.00;4.80;;;14.80;74.40;;;;;;5046598;28;20027;-74
2022/03/27 06:19:34;;;;;;;6.97;4.80;;;14.80;74.30;;;;;;5031401;28;20443;-71
2022/03/27 06:22:00;;;;;;;7.18;4.72;;;14.80;74.40;;;;;;5030018;28;20091;-74
2022/03/27 06:24:26;;;;;;;7.15;4.25;;;14.80;74.30;;;;;;5030288;28;20028;-73
2022/03/27 06:26:51;;;;;;;7.40;4.95;;;14.80;74.40;;;;;;5047603;28;20024;-73
2022/03/27 06:29:17;;;;;;;6.72;4.65;;;14.80;74.30;;;;;;5047808;28;20044;-75
2022/03/27 06:31:43;;;;;;;6.80;4.45;;;14.80;74.30;;;;;;5028961;28;20409;-75
2022/03/27 06:34:09;;;;;;;7.03;4.70;;;14.80;74.30;;;;;;5030001;28;20044;-74
2022/03/27 06:36:35;;;;;;;7.20;4.82;;;14.80;74.30;;;;;;5063747;28;20445;-73
2022/03/27 06:39:02;;;;;;;7.15;4.80;;;14.80;74.30;;;;;;5067642;28;20031;-76
2022/03/27 06:41:29;;;;;;;7.25;5.03;;;14.80;74.20;;;;;;5049771;28;20029;-72
2022/03/27 06:43:54;;;;;;;7.10;4.70;;;14.80;74.20;;;;;;5049526;28;20033;-72
2022/03/27 06:46:20;;;;;;;7.22;5.00;;;14.80;74.20;;;;;;5049660;28;20031;-75
2022/03/27 06:48:47;;;;;;;7.72;5.13;;;14.80;74.30;;;;;;5066728;28;20112;-72
2022/03/27 06:51:13;;;;;;;8.10;5.20;;;14.90;74.20;;;;;;5067701;28;20021;-73
2022/03/27 06:53:39;;;;;;;8.10;5.38;;;14.80;74.20;;;;;;5031227;28;20140;-73
2022/03/27 06:56:05;;;;;;;7.90;5.65;;;14.80;74.20;;;;;;5046541;28;20608;-75
2022/03/27 06:58:31;;;;;;;7.57;4.90;;;14.80;74.50;;;;;;5028018;28;20033;-73
2022/03/27 07:03:41;;;;;;;7.95;5.07;;;14.80;74.20;;;;;;5046857;28;20044;-72
2022/03/27 07:06:07;;;;;;;8.02;5.10;;;14.90;74.20;;;;;;5046856;28;20386;-76
2022/03/27 07:08:32;;;;;;;7.60;4.95;;;14.80;74.10;;;;;;5030878;28;20032;-73
2022/03/27 07:10:58;;;;;;;7.57;5.15;;;14.80;74.20;;;;;;5028998;28;20033;-72
2022/03/27 07:13:23;;;;;;;8.38;5.38;;;14.90;74.10;;;;;;5032302;28;20472;-73
2022/03/27 07:15:49;;;;;;;8.15;5.35;;;14.80;74.00;;;;;;5050487;28;20025;-72
2022/03/27 07:18:17;;;;;;;7.35;5.40;;;14.90;74.20;;;;;;5049853;28;20025;-77
2022/03/27 07:20:44;;;;;;;8.50;5.68;;;14.90;74.20;;;;;;5050363;28;20025;-73
2022/03/27 07:23:12;;;;;;;7.60;5.20;;;14.90;74.20;;;;;;5049829;28;20100;-73
2022/03/27 07:25:41;;;;;;;7.85;5.20;;;14.90;74.20;;;;;;5032302;28;20025;-73
2022/03/27 07:28:08;;;;;;;8.95;5.60;;;14.90;74.20;;;;;;5032172;28;20033;-73
2022/03/27 07:30:35;;;;;;;7.93;5.50;;;14.90;74.20;;;;;;5050673;28;20068;-76
2022/03/27 07:33:01;;;;;;;7.65;5.15;;;14.90;74.20;;;;;;5031811;28;20037;-76
2022/03/27 07:35:26;;;;;;;7.57;5.25;;;14.90;74.20;;;;;;5050067;28;20560;-73
2022/03/27 07:37:53;;;;;;;8.55;5.88;;;14.90;74.10;;;;;;5030897;28;20167;-75
2022/03/27 07:40:20;;;;;;;8.88;5.35;;;14.90;73.80;;;;;;5044991;28;20763;-72
2022/03/27 07:42:49;;;;;;;8.05;5.45;;;15.00;73.70;;;;;;5029993;28;20517;-75
2022/03/27 07:45:18;;;;;;;7.30;5.25;;;15.10;73.70;;;;;;5029736;28;20552;-74
2022/03/27 07:47:44;;;;;;;8.05;5.60;;;15.10;73.50;;;;;;5050483;28;20029;-72
2022/03/27 07:50:10;;;;;;;8.05;5.32;;;15.20;73.30;;;;;;5028950;28;20025;-71
2022/03/27 07:52:36;;;;;;;7.72;5.45;;;15.20;73.10;;;;;;5030760;28;20036;-72
2022/03/27 07:55:02;;;;;;;8.07;5.78;;;15.30;73.10;;;;;;5047487;28;20402;-72
2022/03/27 07:57:28;;;;;;;8.65;5.57;;;15.30;72.90;;;;;;5028550;28;20029;-73
2022/03/27 07:59:54;;;;;;;8.27;5.82;;;15.40;72.80;;;;;;5047172;28;20398;-73
2022/03/27 08:02:21;;;;;;;7.95;5.75;;;15.40;72.50;;;;;;5046660;28;20017;-73
2022/03/27 08:04:47;;;;;;;8.25;5.90;;;15.40;72.40;;;;;;5032359;28;20021;-71
2022/03/27 08:07:13;;;;;;;7.75;5.35;;;15.50;72.30;;;;;;5048340;28;20017;-73
2022/03/27 08:09:40;;;;;;;8.35;5.75;;;15.50;72.30;;;;;;5048742;28;20020;-71
2022/03/27 08:12:08;;;;;;;7.82;5.20;;;15.50;72.20;;;;;;5049553;28;20025;-73
2022/03/27 08:14:38;;;;;;;8.50;5.78;;;15.50;72.20;;;;;;5048757;28;20581;-69
2022/03/27 08:17:05;;;;;;;7.85;5.93;;;15.50;72.40;;;;;;5045104;28;20033;-72
2022/03/27 08:19:30;;;;;;;8.52;5.82;;;15.50;72.40;;;;;;5030023;28;20033;-74
2022/03/27 08:21:56;;;;;;;8.02;5.63;;;15.50;72.30;;;;;;5030432;28;20745;-73
2022/03/27 08:24:22;;;;;;;8.48;5.80;;;15.50;72.30;;;;;;5025821;28;20082;-74
2022/03/27 08:27:00;;;;;;;7.90;5.50;;;15.50;72.30;;;;;;5026035;28;20538;-71
2022/03/27 08:29:28;;;;;;;8.30;5.78;;;15.50;72.30;;;;;;5051997;28;20059;-72
2022/03/27 08:31:53;;;;;;;8.68;6.00;;;15.60;72.40;;;;;;5029915;28;20040;-71
2022/03/27 08:34:20;;;;;;;8.35;5.95;;;15.60;72.40;;;;;;5029445;28;20516;-74
2022/03/27 08:36:47;;;;;;;8.50;5.90;;;15.50;72.10;;;;;;5047954;28;20029;-71
2022/03/27 08:39:13;;;;;;;8.98;5.75;;;15.60;72.10;;;;;;5047613;28;20029;-73
2022/03/27 08:41:45;;;;;;;8.77;5.85;;;15.60;72.00;;;;;;5056247;28;20063;-75
2022/03/27 08:44:12;;;;;;;9.15;6.18;;;15.70;72.00;;;;;;5029117;28;20335;-71
2022/03/27 08:46:40;;;;;;;9.32;6.32;;;15.70;71.90;;;;;;5044159;28;20032;-74
2022/03/27 08:49:18;;;;;;;8.95;6.13;;;15.70;71.80;;;;;;5029604;28;20025;-73
2022/03/27 08:52:10;;;;;;;8.57;5.97;;;15.70;71.70;;;;;;5047099;28;20052;-74
2022/03/27 08:54:43;;;;;;;9.65;6.72;;;15.80;71.70;;;;;;5022286;28;20474;-73
2022/03/27 08:57:24;;;;;;;9.38;6.50;;;15.80;71.60;;;;;;5031609;28;20079;-73
2022/03/27 08:59:54;;;;;;;9.60;7.00;;;15.80;71.60;;;;;;5044401;28;20044;-73
2022/03/27 09:02:23;;;;;;;9.55;6.47;;;15.90;71.50;;;;;;5047191;28;20513;-73
2022/03/27 09:04:54;;;;;;;9.57;6.55;;;15.90;71.50;;;;;;5057510;28;20098;-73
2022/03/27 09:07:29;;;;;;;9.50;6.50;;;15.90;71.50;;;;;;5030103;28;20071;-70
2022/03/27 09:09:56;;;;;;;12.32;7.93;;;15.90;71.50;;;;;;5045715;28;20299;-75
2022/03/27 09:12:22;;;;;;;34.58;9.57;;;15.90;71.40;;;;;;5029418;28;20037;-72
2022/03/27 09:14:48;;;;;;;35.13;13.75;;;15.90;71.50;;;;;;5028944;28;20029;-73
2022/03/27 09:17:15;;;;;;;29.27;13.90;;;15.90;70.30;;;;;;5028810;28;20025;-72
2022/03/27 09:19:46;;;;;;;30.27;13.57;;;15.90;70.20;;;;;;5029402;28;20024;-73
2022/03/27 09:22:21;;;;;;;27.03;13.17;;;15.90;70.20;;;;;;5046884;28;20025;-74
2022/03/27 09:24:56;;;;;;;30.95;13.55;;;16.00;70.20;;;;;;5029112;28;20112;-73
2022/03/27 09:27:32;;;;;;;38.33;13.90;;;16.00;70.30;;;;;;5044981;28;20029;-74
2022/03/27 09:30:07;;;;;;;26.65;13.32;;;16.00;70.30;;;;;;5048131;28;20845;-73
2022/03/27 09:32:39;;;;;;;24.80;13.50;;;16.00;70.30;;;;;;5027887;28;20036;-73
2022/03/27 09:35:12;;;;;;;28.35;13.55;;;16.00;70.10;;;;;;5048091;28;20477;-72
2022/03/27 09:37:43;;;;;;;22.27;13.35;;;16.10;70.20;;;;;;5026385;28;20128;-71
2022/03/27 09:40:10;;;;;;;21.63;12.80;;;16.10;70.20;;;;;;5029179;28;20108;-74
2022/03/27 09:42:41;;;;;;;21.77;12.90;;;16.10;70.10;;;;;;5044664;28;20976;-73
2022/03/27 09:45:23;;;;;;;20.23;12.63;;;16.10;70.10;;;;;;5025430;28;20075;-72
2022/03/27 09:47:50;;;;;;;21.90;13.40;;;16.20;70.60;;;;;;5026138;28;20485;-73
2022/03/27 09:50:35;;;;;;;21.23;13.13;;;16.10;70.10;;;;;;5044937;28;20037;-74
2022/03/27 09:53:23;;;;;;;21.75;13.65;;;16.20;70.20;;;;;;5039051;28;20380;-74
2022/03/27 09:55:55;;;;;;;19.83;12.43;;;16.20;70.10;;;;;;5047567;28;20032;-74
2022/03/27 09:58:37;;;;;;;19.33;12.10;;;16.20;70.20;;;;;;5031530;28;20037;-75
2022/03/27 10:01:12;;;;;;;17.48;12.38;;;16.20;70.20;;;;;;5028315;28;20020;-73
2022/03/27 10:04:14;;;;;;;25.90;12.63;;;16.20;70.20;;;;;;5028053;28;20112;-77
2022/03/27 10:06:40;;;;;;;19.15;12.25;;;16.20;70.10;;;;;;5027000;28;20029;-73
2022/03/27 10:09:12;;;;;;;20.80;13.07;;;16.30;70.20;;;;;;5029877;28;20033;-75
2022/03/27 10:11:40;;;;;;;20.13;13.20;;;16.20;70.20;;;;;;5047146;28;20025;-76
2022/03/27 10:14:06;;;;;;;20.80;12.55;;;16.30;70.20;;;;;;5027423;28;20032;-73
2022/03/27 10:16:38;;;;;;;18.70;12.75;;;16.30;70.20;;;;;;5045409;28;20044;-73
2022/03/27 10:19:29;;;;;;;17.95;12.13;;;16.30;70.20;;;;;;5027277;28;20021;-71
2022/03/27 10:21:55;;;;;;;18.75;12.63;;;16.30;70.20;;;;;;5044313;28;20112;-72
2022/03/27 10:24:23;;;;;;;19.92;12.73;;;16.30;70.30;;;;;;5027670;28;20144;-71
2022/03/27 10:26:49;;;;;;;20.48;13.07;;;16.30;70.20;;;;;;5046328;28;20025;-74
2022/03/27 10:29:15;;;;;;;22.58;13.80;;;16.30;70.30;;;;;;5029328;28;20473;-72
2022/03/27 10:31:41;;;;;;;23.10;14.80;;;16.30;69.70;;;;;;5045650;28;20036;-75
2022/03/27 10:34:10;;;;;;;22.55;14.52;;;16.20;69.60;;;;;;5028988;28;20033;-71
2022/03/27 10:36:47;;;;;;;28.52;14.77;;;16.30;69.70;;;;;;5026981;28;20024;-73
2022/03/27 10:39:29;;;;;;;23.17;14.63;;;16.30;69.80;;;;;;5025046;28;20486;-71
2022/03/27 10:42:15;;;;;;;22.67;14.55;;;16.30;69.90;;;;;;5045911;28;20032;-75
2022/03/27 10:44:49;;;;;;;20.65;14.90;;;16.30;70.00;;;;;;5027703;28;20025;-71
2022/03/27 10:47:18;;;;;;;21.63;14.45;;;16.30;70.00;;;;;;5044496;28;20029;-74
2022/03/27 10:50:04;;;;;;;19.75;14.20;;;16.30;70.10;;;;;;5030242;28;20075;-73
2022/03/27 10:52:34;;;;;;;20.55;14.63;;;16.30;70.10;;;;;;5030354;28;20025;-72
2022/03/27 10:55:02;;;;;;;19.70;13.67;;;16.30;70.00;;;;;;5029802;28;20394;-74
2022/03/27 10:57:32;;;;;;;20.45;14.43;;;16.30;70.00;;;;;;5030236;28;20037;-73
2022/03/27 10:59:58;;;;;;;23.23;14.40;;;16.30;70.00;;;;;;5051465;28;20037;-75
2022/03/27 11:02:48;;;;;;;22.95;14.63;;;16.40;70.10;;;;;;5030082;28;20333;-72
2022/03/27 11:05:29;;;;;;;20.30;14.05;;;16.30;70.00;;;;;;5051220;28;20028;-73
2022/03/27 11:08:17;;;;;;;19.50;14.05;;;16.40;70.10;;;;;;5048686;28;20080;-73
2022/03/27 11:10:50;;;;;;;21.05;13.88;;;16.40;70.10;;;;;;5052978;28;20032;-74
2022/03/27 11:13:33;;;;;;;22.10;14.48;;;16.40;70.00;;;;;;5049544;28;20063;-73
2022/03/27 11:16:03;;;;;;;18.20;13.68;;;16.40;70.00;;;;;;5047349;28;20033;-75
2022/03/27 11:18:35;;;;;;;19.52;14.15;;;16.40;70.10;;;;;;5031460;28;20088;-72
2022/03/27 11:21:01;;;;;;;19.52;13.63;;;16.40;70.10;;;;;;5032095;28;20025;-74
2022/03/27 11:23:28;;;;;;;18.67;13.63;;;16.40;70.00;;;;;;5031950;28;20021;-74
2022/03/27 11:25:55;;;;;;;18.92;13.43;;;16.40;70.10;;;;;;5030461;28;20037;-76
2022/03/27 11:28:23;;;;;;;19.58;13.07;;;16.40;70.00;;;;;;5032341;28;20163;-73
2022/03/27 11:30:51;;;;;;;19.73;14.48;;;16.40;70.10;;;;;;5045098;28;20025;-74
2022/03/27 11:33:25;;;;;;;19.15;14.05;;;16.40;70.10;;;;;;5049867;28;20037;-75
2022/03/27 11:36:09;;;;;;;16.52;12.90;;;16.40;70.10;;;;;;5045794;28;20025;-74
2022/03/27 11:39:01;;;;;;;19.98;13.90;;;16.40;70.10;;;;;;5031221;28;20082;-74
2022/03/27 11:41:43;;;;;;;17.80;13.32;;;16.40;70.10;;;;;;5065351;28;20052;-73
2022/03/27 11:47:20;;;;;;;19.40;13.68;;;16.50;70.30;;;;;;5052248;28;20094;-74
2022/03/27 11:49:47;;;;;;;18.42;13.18;;;16.50;70.30;;;;;;5048649;28;20029;-76
2022/03/27 11:52:16;;;;;;;17.27;13.00;;;16.50;70.30;;;;;;5053399;28;20024;-73
2022/03/27 11:54:42;;;;;;;17.25;13.18;;;16.50;70.30;;;;;;5053241;28;20029;-73
2022/03/27 11:57:09;;;;;;;17.02;12.85;;;16.40;70.20;;;;;;5048998;28;20060;-77
2022/03/27 11:59:46;;;;;;;17.00;12.48;;;16.50;70.30;;;;;;5029827;28;20028;-74
2022/03/27 12:02:12;;;;;;;16.70;12.18;;;16.50;70.30;;;;;;5043486;28;20032;-73
2022/03/27 12:04:52;;;;;;;16.98;12.73;;;16.50;70.30;;;;;;5036797;28;20036;-75
2022/03/27 12:07:17;;;;;;;16.43;11.97;;;16.50;70.40;;;;;;5031846;28;20109;-73
2022/03/27 12:09:43;;;;;;;18.23;12.93;;;16.40;70.30;;;;;;5047731;28;20348;-73
2022/03/27 12:12:10;;;;;;;15.90;12.20;;;16.50;70.40;;;;;;5030440;28;20120;-71
2022/03/27 12:14:57;;;;;;;16.20;12.57;;;16.50;70.40;;;;;;5048766;28;20033;-73
2022/03/27 12:17:24;;;;;;;16.25;12.15;;;16.50;70.50;;;;;;5030673;28;20029;-74
2022/03/27 12:20:16;;;;;;;19.73;12.55;;;16.50;70.50;;;;;;5026901;28;20033;-73
2022/03/27 12:22:45;;;;;;;16.52;12.32;;;16.50;70.50;;;;;;5040709;28;20529;-74
2022/03/27 12:25:31;;;;;;;16.42;12.02;;;16.50;70.50;;;;;;5047383;28;20074;-71
2022/03/27 12:30:51;;;;;;;16.77;11.98;;;16.40;70.50;;;;;;5051445;28;20036;-72
2022/03/27 12:33:24;;;;;;;14.50;11.13;;;16.40;70.50;;;;;;5029031;28;20033;-75
2022/03/27 12:36:09;;;;;;;15.65;12.15;;;16.40;70.50;;;;;;5048756;28;20036;-72
2022/03/27 12:38:34;;;;;;;18.65;12.75;;;16.40;70.60;;;;;;5032181;28;20406;-73
2022/03/27 12:41:02;;;;;;;15.85;11.27;;;16.40;70.60;;;;;;5030975;28;20024;-73
2022/03/27 12:43:28;;;;;;;17.05;12.10;;;16.40;70.60;;;;;;5031255;28;20078;-73
2022/03/27 12:45:55;;;;;;;16.92;12.40;;;16.40;70.70;;;;;;5049021;28;20070;-73
2022/03/27 12:48:28;;;;;;;17.17;12.13;;;16.40;70.60;;;;;;5047967;28;20071;-77
2022/03/27 12:50:56;;;;;;;16.73;12.00;;;16.40;70.60;;;;;;5030208;28;20021;-72
2022/03/27 12:53:22;;;;;;;19.55;12.68;;;16.40;70.60;;;;;;5029205;28;20037;-75
2022/03/27 12:55:49;;;;;;;17.10;11.80;;;16.40;70.70;;;;;;5030799;28;20032;-73